Flight Track Log - Related Links

Times and Time Zones

All times are in EDT time to prevent confusion due to time zone crossing. See the N510SR flight status page for this flight to view local times or setup timezone preferences in your user account.

Time Position Orientation Groundspeed Altitude Reporting Facility
EDT Latitude Longitude Course Direction KTS MPH feet Rate Location/Type
Mon 04:09:00 PM 40.9308 -74.0422 North 246 283 2,600  Level New York Center
Mon 04:10:00 PM 40.9261 -74.1408 266° West 261 300 4,500 1,218 Climbing New York Center
Mon 04:11:13 PM 40.8833 -74.2500 243° Southwest 274 315 5,300 1,489 Climbing New York TRACON
Mon 04:12:13 PM 40.8333 -74.3167 225° Southwest 283 326 7,800 2,335 Climbing New York TRACON
Mon 04:14:00 PM 40.7197 -74.4264 216° Southwest 312 359 11,800 2,407 Climbing New York Center
Mon 04:15:00 PM 40.6739 -74.5581 245° Southwest 352 405 14,500 2,600 Climbing New York Center
Mon 04:16:00 PM 40.6447 -74.6794 252° West 381 438 17,000 2,300 Climbing New York Center
Mon 04:17:00 PM 40.6003 -74.8272 248° West 401 461 19,100 2,100 Climbing New York Center
Mon 04:18:00 PM 40.5211 -74.9428 228° Southwest 409 471 21,200 1,950 Climbing New York Center
Mon 04:19:00 PM 40.4419 -75.0633 229° Southwest 424 488 23,000 1,700 Climbing New York Center
Mon 04:20:00 PM 40.3581 -75.1861 228° Southwest 443 510 24,600 1,800 Climbing New York Center
Mon 04:21:00 PM 40.2742 -75.3142 229° Southwest 464 534 26,600 2,200 Climbing New York Center
Mon 04:22:00 PM 40.1761 -75.4217 220° Southwest 470 541 29,000 2,300 Climbing New York Center
Mon 04:23:00 PM 40.0839 -75.5403 225° Southwest 465 535 31,200 2,350 Climbing New York Center
Mon 04:24:00 PM 40.0081 -75.6600 230° Southwest 459 528 33,700 2,150 Climbing New York Center
Mon 04:25:00 PM 39.9361 -75.7847 233° Southwest 446 513 35,500 1,350 Climbing New York Center
Mon 04:26:00 PM 39.8706 -75.9044 235° Southwest 441 507 36,400 1,450 Climbing New York Center
Mon 04:27:00 PM 39.7942 -76.0286 231° Southwest 446 513 38,400 1,137 Climbing New York Center
Mon 04:29:10 PM 39.6261 -76.3108 232° Southwest 457 526 40,000 503 Climbing Washington Center
Mon 04:30:11 PM 39.5522 -76.4419 234° Southwest 457 526 40,000 50 Level Washington Center
Mon 04:31:11 PM 39.4700 -76.5728 231° Southwest 462 532 40,100 50 Climbing Washington Center
Mon 04:32:12 PM 39.3875 -76.7114 232° Southwest 472 543 40,100  Level Washington Center
Mon 04:33:10 PM 39.3050 -76.8469 232° Southwest 478 550 40,100  Level Washington Center
Mon 04:34:10 PM 39.2242 -76.9819 232° Southwest 485 558 40,100  Level Washington Center
Mon 04:35:11 PM 39.1433 -77.1144 232° Southwest 485 558 40,100  Level Washington Center
Mon 04:36:11 PM 39.0625 -77.2492 232° Southwest 485 558 40,100  Level Washington Center
Mon 04:37:12 PM 38.9772 -77.3861 231° Southwest 485 558 40,100  Level Washington Center
Mon 04:38:10 PM 38.8958 -77.5147 231° Southwest 480 552 40,100  Level Washington Center
Mon 04:39:11 PM 38.8122 -77.6592 233° Southwest 493 567 40,100  Level Washington Center
Mon 04:40:11 PM 38.7308 -77.7844 230° Southwest 498 573 40,100  Level Washington Center
Mon 04:41:12 PM 38.6511 -77.9178 233° Southwest 498 573 40,100  Level Washington Center
Mon 04:42:10 PM 38.5672 -78.0558 232° Southwest 498 573 40,100  Level Washington Center
Mon 04:43:11 PM 38.4831 -78.1908 231° Southwest 498 573 40,100  Level Washington Center
Mon 04:44:12 PM 38.3986 -78.3258 231° Southwest 498 573 40,100  Level Washington Center
Mon 04:45:12 PM 38.3119 -78.4603 231° Southwest 498 573 40,100  Level Washington Center
Mon 04:46:11 PM 38.2228 -78.6128 233° Southwest 498 573 40,100  Level Washington Center
Mon 04:47:11 PM 38.1358 -78.7492 231° Southwest 498 573 40,100  Level Washington Center
Mon 04:48:11 PM 38.0619 -78.8672 232° Southwest 498 573 40,100  Level Washington Center
Mon 04:49:12 PM 37.9725 -79.0031 230° Southwest 498 573 40,100  Level Washington Center
Mon 04:50:12 PM 37.8936 -79.1389 234° Southwest 498 573 40,100  Level Washington Center
Mon 04:51:11 PM 37.8114 -79.2981 237° Southwest 493 567 40,100  Level Washington Center
Mon 04:52:11 PM 37.7403 -79.4417 238° Southwest 493 567 40,100  Level Washington Center
Mon 04:53:12 PM 37.6647 -79.5847 236° Southwest 493 567 40,100  Level Washington Center
Mon 04:54:12 PM 37.5997 -79.7150 238° Southwest 493 567 40,100  Level Washington Center
Mon 04:55:10 PM 37.5256 -79.8656 238° Southwest 498 573 40,100  Level Washington Center
Mon 04:56:10 PM 37.4406 -80.0256 236° Southwest 503 579 40,100  Level Washington Center
Mon 04:57:11 PM 37.3706 -80.1653 238° Southwest 496 571 40,100  Level Washington Center
Mon 04:58:12 PM 37.2983 -80.3044 237° Southwest 496 571 40,100  Level Washington Center
Mon 04:59:19 PM 37.2117 -80.4686 236° Southwest 482 555 40,100  Level Atlanta Center
Mon 05:00:19 PM 37.1386 -80.6125 238° Southwest 482 555 40,100  Level Atlanta Center
Mon 05:01:19 PM 37.0797 -80.7453 241° Southwest 492 566 40,100  Level Atlanta Center
Mon 05:02:19 PM 37.0189 -80.8933 243° Southwest 492 566 40,100  Level Atlanta Center
Mon 05:03:19 PM 36.9622 -81.0489 246° West 492 566 40,100  Level Atlanta Center
Mon 05:04:19 PM 36.9097 -81.2014 247° West 487 560 40,100  Level Atlanta Center
Mon 05:05:19 PM 36.8278 -81.3600 237° Southwest 492 566 40,100  Level Atlanta Center
Mon 05:06:19 PM 36.7658 -81.4864 239° Southwest 497 572 40,100  Level Atlanta Center
Mon 05:07:19 PM 36.6894 -81.6311 237° Southwest 492 566 40,100  Level Atlanta Center
Mon 05:08:19 PM 36.6131 -81.7706 236° Southwest 497 572 40,100  Level Atlanta Center
Mon 05:09:19 PM 36.5383 -81.9122 237° Southwest 497 572 40,100  Level Atlanta Center
Mon 05:10:19 PM 36.4553 -82.0694 237° Southwest 497 572 40,100  Level Atlanta Center
Mon 05:11:19 PM 36.3761 -82.2078 235° Southwest 497 572 40,100 50 Level Atlanta Center
Mon 05:12:19 PM 36.3011 -82.3489 237° Southwest 497 572 40,200 950 Climbing Atlanta Center
Mon 05:13:19 PM 36.2278 -82.4867 237° Southwest 492 566 42,000 1,450 Climbing Atlanta Center
Mon 05:14:19 PM 36.1564 -82.6142 235° Southwest 481 554 43,100 550 Climbing Atlanta Center
Mon 05:15:19 PM 36.0889 -82.7411 237° Southwest 457 526 43,100  Level Atlanta Center
Mon 05:16:19 PM 36.0153 -82.8733 235° Southwest 457 526 43,100  Level Atlanta Center
Mon 05:17:19 PM 35.9453 -83.0000 236° Southwest 457 526 43,100  Level Atlanta Center
Mon 05:18:19 PM 35.8756 -83.1289 236° Southwest 457 526 43,100  Level Atlanta Center
Mon 05:19:19 PM 35.8136 -83.2450 237° Southwest 457 526 43,100  Level Atlanta Center
Mon 05:20:19 PM 35.7414 -83.3736 235° Southwest 457 526 43,100  Level Atlanta Center
Mon 05:21:19 PM 35.6711 -83.4994 236° Southwest 457 526 43,100  Level Atlanta Center
Mon 05:22:19 PM 35.5967 -83.6275 234° Southwest 457 526 43,100  Level Atlanta Center
Mon 05:23:19 PM 35.5239 -83.7556 235° Southwest 457 526 43,100  Level Atlanta Center
Mon 05:24:19 PM 35.4533 -83.8833 236° Southwest 462 532 43,100  Level Atlanta Center
Mon 05:25:19 PM 35.3825 -84.0108 236° Southwest 462 532 43,100  Level Atlanta Center
Mon 05:26:19 PM 35.3094 -84.1381 235° Southwest 462 532 43,100  Level Atlanta Center
Mon 05:27:19 PM 35.2383 -84.2625 235° Southwest 462 532 43,100  Level Atlanta Center
Mon 05:28:19 PM 35.1650 -84.3869 234° Southwest 462 532 43,100  Level Atlanta Center
Mon 05:29:19 PM 35.0914 -84.5133 235° Southwest 462 532 43,100  Level Atlanta Center
Mon 05:30:19 PM 35.0219 -84.6372 236° Southwest 462 532 43,100  Level Atlanta Center
Mon 05:31:19 PM 34.9483 -84.7608 234° Southwest 457 526 43,100  Level Atlanta Center
Mon 05:32:19 PM 34.8767 -84.8869 235° Southwest 457 526 43,100  Level Atlanta Center
Mon 05:33:19 PM 34.7983 -85.0203 234° Southwest 457 526 43,100  Level Atlanta Center
Mon 05:34:19 PM 34.7242 -85.1456 234° Southwest 452 520 43,100  Level Atlanta Center
Mon 05:35:19 PM 34.6522 -85.2683 235° Southwest 452 520 43,100  Level Atlanta Center
Mon 05:36:19 PM 34.5800 -85.3936 235° Southwest 452 520 43,100  Level Atlanta Center
Mon 05:37:19 PM 34.5075 -85.5158 234° Southwest 452 520 43,100  Level Atlanta Center
Mon 05:38:19 PM 34.4350 -85.6381 234° Southwest 452 520 43,100  Level Atlanta Center
Mon 05:39:19 PM 34.3750 -85.7503 237° Southwest 447 514 43,100  Level Atlanta Center
Mon 05:40:19 PM 34.2919 -85.8767 232° Southwest 447 514 43,100  Level Atlanta Center
Mon 05:41:19 PM 34.2169 -85.9983 233° Southwest 447 514 43,100  Level Atlanta Center
Mon 05:42:19 PM 34.1442 -86.1194 234° Southwest 447 514 43,100  Level Atlanta Center
Mon 05:43:19 PM 34.0731 -86.2331 233° Southwest 447 514 43,100  Level Atlanta Center
Mon 05:44:19 PM 34.0042 -86.3517 235° Southwest 442 509 43,100  Level Atlanta Center
Mon 05:45:19 PM 33.9331 -86.4675 234° Southwest 442 509 43,100  Level Atlanta Center
Mon 05:46:19 PM 33.8619 -86.5831 233° Southwest 442 509 43,100  Level Atlanta Center
Mon 05:47:19 PM 33.7906 -86.6983 233° Southwest 442 509 43,100  Level Atlanta Center
Mon 05:48:19 PM 33.7192 -86.8136 233° Southwest 442 509 43,100 -50 Level Atlanta Center
Mon 05:49:19 PM 33.6497 -86.9286 234° Southwest 442 509 43,000 -50 Descending Atlanta Center
Mon 05:50:19 PM 33.5803 -87.0433 234° Southwest 442 509 43,000 50 Level Atlanta Center
Mon 05:51:19 PM 33.5083 -87.1581 233° Southwest 442 509 43,100 50 Climbing Atlanta Center
Mon 05:52:19 PM 33.4306 -87.2697 230° Southwest 442 509 43,100  Level Atlanta Center
Mon 05:53:19 PM 33.3631 -87.3692 231° Southwest 442 509 43,100  Level Atlanta Center
Mon 05:55:24 PM 33.1989 -87.6164 232° Southwest 428 493 43,100  Level Memphis Center
Mon 05:56:24 PM 33.1242 -87.7256 231° Southwest 428 493 43,100  Level Memphis Center
Mon 05:57:24 PM 33.0492 -87.8367 231° Southwest 428 493 43,100  Level Memphis Center
Mon 05:58:24 PM 32.9783 -87.9453 232° Southwest 428 493 43,100  Level Memphis Center
Mon 05:59:24 PM 32.9031 -88.0536 230° Southwest 428 493 43,100  Level Memphis Center
Mon 06:00:24 PM 32.8258 -88.1644 230° Southwest 428 493 43,100  Level Memphis Center
Mon 06:01:24 PM 32.7503 -88.2725 230° Southwest 428 493 43,100  Level Memphis Center
Mon 06:02:24 PM 32.6728 -88.3831 230° Southwest 428 493 43,100  Level Memphis Center
Mon 06:03:24 PM 32.5994 -88.4931 232° Southwest 428 493 43,100  Level Memphis Center
Mon 06:04:24 PM 32.5300 -88.6053 234° Southwest 428 493 43,100  Level Memphis Center
Mon 06:05:24 PM 32.4922 -88.7367 251° West 416 479 43,100  Level Memphis Center
Mon 06:06:24 PM 32.4583 -88.8653 253° West 416 479 43,100  Level Memphis Center
Mon 06:07:24 PM 32.4453 -88.9961 263° West 405 466 43,100  Level Memphis Center
Mon 06:08:24 PM 32.4528 -89.1189 274° West 410 472 43,100  Level Memphis Center
Mon 06:09:24 PM 32.4456 -89.2519 266° West 410 472 43,100 -200 Level Memphis Center
Mon 06:10:24 PM 32.3375 -89.3050 203° Southwest 357 411 42,700 -700 Descending Memphis Center
Mon 06:11:24 PM 32.2147 -89.3333 191° South 398 458 41,700 -950 Descending Memphis Center
Mon 06:12:24 PM 32.0917 -89.3692 194° South 426 490 40,800 -2,364 Descending Memphis Center
Mon 06:14:09 PM 31.8783 -89.4306 194° South 460 529 35,200 -3,377 Descending Houston Center
Mon 06:15:11 PM 31.7556 -89.4681 195° South 460 529 31,400 -3,339 Descending Houston Center
Mon 06:16:13 PM 31.6222 -89.5422 205° Southwest 461 531 28,300 -2,952 Descending Houston Center
Mon 06:17:15 PM 31.5289 -89.6217 216° Southwest 421 484 25,300 -2,081 Descending Houston Center
Mon 06:18:17 PM 31.4403 -89.7067 219° Southwest 414 476 24,000 -677 Descending Houston Center
Mon 06:19:19 PM 31.3500 -89.7919 219° Southwest 417 480 23,900 -1,024 Descending Houston Center
Mon 06:20:20 PM 31.2556 -89.8564 210° Southwest 406 467 21,900 -2,195 Descending Houston Center
Mon 06:21:22 PM 31.1231 -89.8614 182° South 397 457 19,400 -2,081 Descending Houston Center
Mon 06:22:24 PM 31.0178 -89.8644 181° South 384 442 17,600 -1,694 Descending Houston Center
Mon 06:23:26 PM 30.9247 -89.8658 181° South 344 396 15,900 -1,984 Descending Houston Center
Mon 06:24:28 PM 30.8375 -89.8736 184° South 318 366 13,500 -2,478 Descending Houston Center
Mon 06:24:58 PM 30.7856 -89.8872 193° South 304 350 12,100 -1,667 Descending Houston Center
Mon 06:25:22 PM 30.7547 -89.8958 193° South 304 350 12,000 -375 Descending Houston Center
Mon 06:25:30 PM 30.7539 -89.8958 180° South 308 354 11,900 -984 Descending Houston Center
Mon 06:26:23 PM 30.6739 -89.9164 192° South 295 339 11,000 -871 Descending Houston Center
Mon 06:26:32 PM 30.6744 -89.9175 300° West 298 343 11,000 -727 Level Houston Center
Mon 06:27:29 PM 30.5828 -89.9419 193° South 291 335 10,200 -968 Descending Houston Center
Mon 06:27:34 PM 30.5806 -89.9419 180° South 292 336 10,000 -2,507 Descending Houston Center
Mon 06:28:36 PM 30.5067 -89.9625 193° South 282 325 7,400 -2,419 Descending Houston Center
Mon 06:29:38 PM 30.4364 -89.9808 193° South 268 308 5,000 -2,257 Descending Houston Center
Mon 06:30:25 PM 30.3733 -89.9944 191° South 257 296 3,300 -1,869 Descending Houston Center
Mon 06:30:39 PM 30.3675 -89.9956 189° South 258 297 3,100 -295 Descending Houston Center
Mon 06:31:26 PM 30.3047 -90.0047 187° South 247 284 3,000 -97 Descending Houston Center
Mon 06:31:41 PM 30.3008 -90.0058 194° South 251 289 3,000 -390 Level Houston Center
Mon 06:32:43 PM 30.2253 -90.0203 189° South 235 270 2,500 -679 Descending Houston Center
Mon 06:33:27 PM 30.1844 -90.0314 193° South 202 232 1,800 -774 Descending Houston Center
Mon 06:33:45 PM 30.1708 -90.0333 187° South 216 249 1,700 -269 Descending Houston Center
Mon 06:34:34 PM 30.1300 -90.0314 178° South 163 188 1,500 -387 Descending Houston Center
Mon 06:34:47 PM 30.1236 -90.0317 182° South 189 217 1,300 -787 Descending Houston Center
Mon 06:35:35 PM 30.0883 -90.0308 179° South 146 168 700 -689 Descending Houston Center
Mon 06:35:48 PM 30.0836 -90.0300 171° South 164 189 600 -480 Descending Houston Center
Mon 06:36:50 PM 30.0353 -90.0308 181° South 157 181 100 -484 Descending Houston Center
Mon 06:38:00 PM 30.0333 -90.0167 147° Southeast  Level FlightAware Approximate
Mon 06:45:00 PM 30.0424 -90.0283 147° Southeast  Level Estimated
Mon 06:46:00 PM 30.0424 -90.0283 147° Southeast  Level Estimated

Login

Don't have an account? Register now (free) for customized features, flight alerts, and more!